Time;durP1;ratioP1;P1;durP2;ratioP2;P2;SDS_P1;SDS_P2;PMS_P1;PMS_P2;Temp;Humidity;BMP_temperature;BMP_pressure;BME280_temperature;BME280_humidity;BME280_pressure;Samples;Min_cycle;Max_cycle;Signal;HPM_P1;HPM_P2
2023/05/04 00:01:45;;;;;;;22.48;15.73;;;8.10;72.90;;;;;;5071507;28;20052;-57
2023/05/04 00:04:12;;;;;;;19.40;16.05;;;8.10;72.90;;;;;;5072389;28;20037;-56
2023/05/04 00:06:38;;;;;;;21.92;16.58;;;8.10;74.80;;;;;;5071957;28;20031;-55
2023/05/04 00:09:05;;;;;;;22.33;18.13;;;8.00;74.40;;;;;;5072041;28;20025;-57
2023/05/04 00:11:46;;;;;;;22.30;18.30;;;8.00;81.90;;;;;;5071971;28;20111;-57
2023/05/04 00:14:11;;;;;;;21.40;17.20;;;8.00;82.70;;;;;;5072336;28;20025;-57
2023/05/04 00:16:37;;;;;;;24.75;18.38;;;8.00;79.70;;;;;;5071831;28;20063;-57
2023/05/04 00:19:03;;;;;;;30.63;19.30;;;7.90;79.20;;;;;;5071811;28;20025;-58
2023/05/04 00:21:28;;;;;;;24.38;19.20;;;7.90;81.60;;;;;;5072009;28;20131;-57
2023/05/04 00:23:54;;;;;;;24.42;18.98;;;7.90;82.80;;;;;;5071904;28;20023;-57
2023/05/04 00:26:20;;;;;;;25.73;18.42;;;7.80;83.90;;;;;;5071854;28;20119;-57
2023/05/04 00:28:45;;;;;;;22.90;18.98;;;7.80;82.20;;;;;;5071900;28;20063;-56
2023/05/04 00:31:11;;;;;;;26.23;18.70;;;7.70;82.00;;;;;;5071798;28;20032;-56
2023/05/04 00:33:36;;;;;;;32.55;19.77;;;7.70;83.60;;;;;;5070317;28;20082;-57
2023/05/04 00:36:03;;;;;;;25.08;19.00;;;7.60;85.60;;;;;;5071674;28;20028;-54
2023/05/04 00:38:28;;;;;;;36.47;20.25;;;7.60;85.90;;;;;;5071655;28;20017;-57
2023/05/04 00:40:54;;;;;;;31.25;22.05;;;7.60;87.70;;;;;;5071295;28;20031;-57
2023/05/04 00:43:20;;;;;;;37.17;25.45;;;7.60;90.50;;;;;;5071300;28;20024;-57
2023/05/04 00:45:46;;;;;;;37.60;26.05;;;7.70;93.80;;;;;;5070250;28;20028;-57
2023/05/04 00:48:12;;;;;;;39.13;26.73;;;7.80;96.50;;;;;;5071667;28;20511;-57
2023/05/04 00:50:39;;;;;;;33.22;24.17;;;7.90;96.10;;;;;;5069936;28;20028;-57
2023/05/04 00:53:08;;;;;;;28.38;24.10;;;7.90;94.10;;;;;;5071466;28;20021;-56
2023/05/04 00:55:37;;;;;;;34.35;26.45;;;7.90;94.30;;;;;;5071553;28;20032;-57
2023/05/04 00:58:03;;;;;;;39.38;28.65;;;7.90;96.10;;;;;;5070112;28;20749;-55
2023/05/04 01:00:28;;;;;;;39.53;28.20;;;8.00;96.70;;;;;;5071241;28;20028;-57
2023/05/04 01:02:54;;;;;;;44.58;28.45;;;8.00;97.40;;;;;;5071330;28;20430;-57
2023/05/04 01:05:20;;;;;;;41.55;29.02;;;8.00;96.90;;;;;;5071321;28;20364;-58
2023/05/04 01:08:00;;;;;;;38.28;28.05;;;8.00;96.80;;;;;;5071089;28;20028;-56
2023/05/04 01:10:38;;;;;;;39.85;28.48;;;7.90;96.50;;;;;;5071169;28;20036;-56
2023/05/04 01:13:12;;;;;;;49.22;32.47;;;7.90;97.50;;;;;;5072471;28;20103;-55
2023/05/04 01:15:39;;;;;;;40.85;30.67;;;7.90;97.80;;;;;;5073744;28;20094;-57
2023/05/04 01:18:05;;;;;;;40.92;32.42;;;7.90;98.30;;;;;;5075281;28;20021;-56
2023/05/04 01:20:31;;;;;;;46.50;32.38;;;7.90;99.30;;;;;;5075290;28;20031;-57
2023/05/04 01:22:57;;;;;;;49.65;30.83;;;7.90;98.90;;;;;;5075319;28;20368;-57
2023/05/04 01:25:29;;;;;;;40.90;31.50;;;7.90;99.20;;;;;;5075143;28;20026;-57
2023/05/04 01:28:01;;;;;;;51.47;34.85;;;8.00;99.20;;;;;;5075034;28;20524;-57
2023/05/04 01:30:36;;;;;;;53.50;33.72;;;8.00;99.80;;;;;;5075032;28;20056;-55
2023/05/04 01:33:03;;;;;;;42.30;32.95;;;8.00;99.40;;;;;;5074977;28;20099;-58
2023/05/04 01:35:28;;;;;;;40.22;31.20;;;8.10;99.20;;;;;;5074781;28;20060;-58
2023/05/04 01:37:54;;;;;;;41.15;32.40;;;8.00;99.20;;;;;;5074765;28;20063;-58
2023/05/04 01:40:20;;;;;;;44.53;34.47;;;8.00;98.90;;;;;;5074782;28;20074;-58
2023/05/04 01:42:46;;;;;;;43.90;31.52;;;8.00;99.20;;;;;;5074756;28;20351;-57
2023/05/04 01:45:12;;;;;;;40.05;32.25;;;8.00;99.00;;;;;;5074718;28;20242;-57
2023/05/04 01:47:37;;;;;;;44.65;30.10;;;7.90;98.80;;;;;;5074478;28;20490;-57
2023/05/04 01:50:04;;;;;;;46.85;34.15;;;7.90;98.70;;;;;;5074715;28;20025;-57
2023/05/04 01:52:30;;;;;;;40.08;29.27;;;7.90;98.70;;;;;;5074422;28;20032;-57
2023/05/04 01:54:56;;;;;;;42.67;29.88;;;7.80;97.90;;;;;;5072991;28;20102;-56
2023/05/04 01:57:22;;;;;;;43.30;31.80;;;7.80;98.10;;;;;;5074471;28;20082;-55
2023/05/04 01:59:48;;;;;;;50.95;33.60;;;7.70;98.10;;;;;;5074738;28;20547;-56
2023/05/04 02:02:14;;;;;;;39.35;30.40;;;7.70;99.00;;;;;;5074362;28;20055;-57
2023/05/04 02:04:40;;;;;;;48.08;31.83;;;7.70;99.60;;;;;;5074488;28;20032;-57
2023/05/04 02:07:06;;;;;;;41.03;29.17;;;7.70;99.20;;;;;;5074350;28;20021;-54
2023/05/04 02:09:32;;;;;;;44.65;30.60;;;7.70;99.10;;;;;;5074301;28;20029;-57
2023/05/04 02:11:58;;;;;;;36.30;28.33;;;7.80;99.20;;;;;;5073194;28;20070;-57
2023/05/04 02:14:23;;;;;;;39.60;28.92;;;7.80;99.00;;;;;;5074136;28;20376;-57
2023/05/04 02:16:49;;;;;;;44.13;30.25;;;7.80;98.80;;;;;;5073992;28;20391;-57
2023/05/04 02:19:15;;;;;;;43.72;29.63;;;7.80;98.90;;;;;;5074220;28;20028;-58
2023/05/04 02:21:41;;;;;;;42.03;28.75;;;7.80;98.60;;;;;;5072720;28;20046;-57
2023/05/04 02:24:07;;;;;;;37.50;26.90;;;7.80;98.10;;;;;;5073585;28;20399;-57
2023/05/04 02:26:33;;;;;;;33.38;25.58;;;7.80;98.00;;;;;;5073974;28;20029;-54
2023/05/04 02:28:59;;;;;;;33.58;24.35;;;7.70;97.10;;;;;;5072754;28;20466;-57
2023/05/04 02:31:24;;;;;;;28.67;23.63;;;7.70;96.40;;;;;;5073798;28;20107;-57
2023/05/04 02:33:51;;;;;;;31.67;21.65;;;7.70;95.70;;;;;;5073904;28;20027;-56
2023/05/04 02:36:17;;;;;;;32.42;22.25;;;7.60;94.60;;;;;;5073868;28;20438;-57
2023/05/04 02:38:42;;;;;;;27.92;22.02;;;7.60;94.40;;;;;;5073445;28;20096;-55
2023/05/04 02:41:08;;;;;;;30.50;22.95;;;7.50;93.90;;;;;;5073576;28;20484;-58
2023/05/04 02:43:34;;;;;;;31.13;20.63;;;7.50;93.80;;;;;;5073617;28;20009;-58
2023/05/04 02:46:00;;;;;;;25.60;21.60;;;7.50;93.10;;;;;;5073617;28;20681;-57
2023/05/04 02:48:25;;;;;;;29.58;20.38;;;7.40;92.90;;;;;;5073512;28;20020;-57
2023/05/04 02:50:51;;;;;;;29.73;21.42;;;7.30;92.50;;;;;;5073651;28;20054;-54
2023/05/04 02:53:17;;;;;;;31.30;20.42;;;7.30;93.40;;;;;;5072572;28;20475;-55
2023/05/04 02:55:42;;;;;;;27.83;20.20;;;7.30;92.80;;;;;;5073315;28;20550;-56
2023/05/04 02:58:08;;;;;;;38.63;21.92;;;7.30;92.80;;;;;;5073506;28;20028;-57
2023/05/04 03:00:34;;;;;;;32.97;20.85;;;7.20;92.40;;;;;;5073546;28;20035;-56
2023/05/04 03:03:00;;;;;;;27.30;20.65;;;7.20;92.80;;;;;;5073245;28;20049;-57
2023/05/04 03:05:25;;;;;;;30.60;20.98;;;7.10;93.10;;;;;;5073348;28;20024;-55
2023/05/04 03:07:51;;;;;;;29.30;21.88;;;7.10;93.00;;;;;;5072865;28;20530;-56
2023/05/04 03:10:17;;;;;;;37.05;21.83;;;7.10;93.60;;;;;;5072823;28;20068;-57
2023/05/04 03:12:43;;;;;;;31.70;22.27;;;7.00;94.10;;;;;;5073223;28;20037;-56
2023/05/04 03:15:09;;;;;;;33.10;21.55;;;7.10;94.70;;;;;;5072869;28;20021;-57
2023/05/04 03:17:35;;;;;;;30.60;20.75;;;7.10;95.60;;;;;;5073186;28;20024;-57
2023/05/04 03:20:01;;;;;;;35.42;21.92;;;7.20;96.00;;;;;;5073028;28;20021;-56
2023/05/04 03:22:26;;;;;;;38.65;21.42;;;7.20;95.20;;;;;;5073087;28;20027;-56
2023/05/04 03:24:52;;;;;;;25.38;19.50;;;7.20;94.20;;;;;;5071675;28;20502;-55
2023/05/04 03:27:18;;;;;;;29.10;20.85;;;7.20;93.60;;;;;;5073089;28;20037;-56
2023/05/04 03:29:43;;;;;;;33.10;20.08;;;7.20;93.60;;;;;;5072638;28;20028;-57
2023/05/04 03:32:11;;;;;;;21.63;16.95;;;7.10;92.60;;;;;;5072839;28;20025;-56
2023/05/04 03:34:37;;;;;;;25.38;17.92;;;7.10;92.40;;;;;;5070813;28;20502;-58
2023/05/04 03:37:03;;;;;;;25.10;17.70;;;7.00;91.10;;;;;;5071475;28;20024;-57
2023/05/04 03:39:29;;;;;;;26.45;17.73;;;6.90;91.80;;;;;;5072533;28;20491;-58
2023/05/04 03:41:54;;;;;;;29.40;18.55;;;6.90;91.80;;;;;;5072475;28;20062;-56
2023/05/04 03:44:20;;;;;;;25.75;18.60;;;6.80;92.10;;;;;;5072439;28;20029;-56
2023/05/04 03:46:46;;;;;;;22.33;15.93;;;6.80;91.40;;;;;;5072175;28;20021;-57
2023/05/04 03:49:12;;;;;;;21.98;16.83;;;6.70;91.70;;;;;;5072344;28;20388;-56
2023/05/04 03:51:37;;;;;;;34.38;18.23;;;6.60;91.20;;;;;;5072146;28;20051;-57
2023/05/04 03:54:03;;;;;;;22.02;16.95;;;6.60;91.10;;;;;;5072274;28;20064;-57
2023/05/04 03:56:29;;;;;;;33.05;16.48;;;6.60;91.70;;;;;;5072375;28;20033;-56
2023/05/04 03:58:55;;;;;;;26.00;15.32;;;6.60;90.30;;;;;;5072396;28;20024;-57
2023/05/04 04:01:20;;;;;;;22.38;15.43;;;6.60;90.80;;;;;;5070919;28;20039;-56
2023/05/04 04:03:46;;;;;;;21.65;15.77;;;6.70;92.30;;;;;;5070592;28;20039;-57
2023/05/04 04:06:12;;;;;;;21.80;15.75;;;6.80;90.30;;;;;;5072340;28;20021;-54
2023/05/04 04:08:38;;;;;;;23.23;16.00;;;6.80;90.10;;;;;;5072331;28;20016;-57
2023/05/04 04:11:03;;;;;;;18.20;14.38;;;6.90;89.40;;;;;;5070389;28;20361;-57
2023/05/04 04:13:29;;;;;;;21.33;13.82;;;6.90;88.40;;;;;;5072036;28;20462;-57
2023/05/04 04:15:55;;;;;;;25.52;15.20;;;6.90;88.30;;;;;;5071484;28;20028;-56
2023/05/04 04:18:22;;;;;;;29.35;15.13;;;7.00;88.30;;;;;;5071514;28;20023;-57
2023/05/04 04:20:48;;;;;;;20.15;13.52;;;7.00;87.10;;;;;;5071537;28;20453;-56
2023/05/04 04:23:17;;;;;;;25.35;14.82;;;7.10;86.80;;;;;;5071618;28;20096;-56
2023/05/04 04:25:43;;;;;;;21.33;14.77;;;7.10;87.30;;;;;;5071595;28;20021;-56
2023/05/04 04:28:09;;;;;;;20.50;15.60;;;7.20;90.50;;;;;;5071437;28;20031;-57
2023/05/04 04:30:34;;;;;;;27.45;16.20;;;7.30;91.20;;;;;;5071419;28;20073;-57
2023/05/04 04:33:01;;;;;;;27.88;18.42;;;7.40;91.30;;;;;;5071446;28;20028;-57
2023/05/04 04:35:26;;;;;;;24.20;16.02;;;7.50;90.50;;;;;;5071298;28;20032;-54
2023/05/04 04:37:52;;;;;;;22.17;16.88;;;7.70;90.10;;;;;;5071491;28;20099;-57
2023/05/04 04:40:18;;;;;;;24.17;17.60;;;7.80;90.70;;;;;;5071661;28;20065;-56
2023/05/04 04:42:43;;;;;;;23.50;18.00;;;7.90;90.80;;;;;;5071366;28;20055;-58
2023/05/04 04:45:09;;;;;;;18.38;15.02;;;8.00;90.60;;;;;;5071273;28;20407;-55
2023/05/04 04:47:35;;;;;;;26.73;16.35;;;8.10;91.20;;;;;;5071022;28;20035;-56
2023/05/04 04:50:02;;;;;;;26.83;18.55;;;8.30;90.00;;;;;;5071112;28;20027;-56
2023/05/04 04:52:27;;;;;;;25.25;18.38;;;8.50;88.20;;;;;;5071322;28;20024;-57
2023/05/04 04:54:53;;;;;;;25.95;19.33;;;8.50;90.30;;;;;;5071104;28;20031;-58
2023/05/04 04:57:19;;;;;;;25.25;18.30;;;8.50;90.40;;;;;;5070013;28;20414;-55
2023/05/04 04:59:45;;;;;;;26.40;18.65;;;8.60;91.60;;;;;;5071078;28;20471;-55
2023/05/04 05:02:10;;;;;;;29.27;21.58;;;8.60;90.30;;;;;;5071106;28;20058;-57
2023/05/04 05:04:41;;;;;;;34.15;23.88;;;8.70;92.90;;;;;;5071148;28;20024;-57
2023/05/04 05:07:07;;;;;;;39.72;25.23;;;8.70;93.30;;;;;;5071516;28;20016;-54
2023/05/04 05:09:34;;;;;;;38.80;24.25;;;8.60;93.90;;;;;;5071106;28;20107;-56
2023/05/04 05:11:59;;;;;;;43.58;22.98;;;8.70;94.80;;;;;;5070127;28;20031;-58
2023/05/04 05:14:26;;;;;;;34.25;22.05;;;8.70;93.50;;;;;;5071203;28;20021;-58
2023/05/04 05:16:52;;;;;;;29.48;21.60;;;8.60;94.90;;;;;;5071420;28;20375;-58
2023/05/04 05:19:18;;;;;;;36.40;21.63;;;8.70;92.50;;;;;;5071142;28;20013;-53
2023/05/04 05:21:43;;;;;;;34.15;21.75;;;8.80;92.30;;;;;;5071100;28;20016;-57
2023/05/04 05:24:09;;;;;;;35.28;21.73;;;8.70;92.70;;;;;;5071073;28;20099;-57
2023/05/04 05:26:35;;;;;;;37.58;21.67;;;8.70;93.60;;;;;;5070902;28;20021;-58
2023/05/04 05:29:01;;;;;;;28.63;21.02;;;8.70;93.30;;;;;;5070256;28;20020;-59
2023/05/04 05:31:27;;;;;;;25.60;19.65;;;8.80;93.80;;;;;;5070519;28;20394;-57
2023/05/04 05:33:52;;;;;;;27.42;18.90;;;8.90;92.60;;;;;;5070398;28;20024;-58
2023/05/04 05:36:18;;;;;;;26.65;19.48;;;8.90;92.80;;;;;;5071105;28;20020;-58
2023/05/04 05:38:44;;;;;;;23.50;18.73;;;8.90;92.40;;;;;;5070633;28;20043;-57
2023/05/04 05:41:25;;;;;;;29.55;20.63;;;9.00;93.40;;;;;;5070960;28;20023;-57
2023/05/04 05:43:50;;;;;;;27.25;19.17;;;9.00;91.60;;;;;;5070405;28;20013;-58
2023/05/04 05:46:17;;;;;;;30.00;20.35;;;9.00;92.00;;;;;;5071020;28;20414;-57
2023/05/04 05:48:43;;;;;;;28.38;21.20;;;9.00;90.80;;;;;;5069330;28;20025;-57
2023/05/04 05:51:09;;;;;;;30.27;20.77;;;9.00;90.60;;;;;;5071069;28;20052;-58
2023/05/04 05:53:34;;;;;;;31.70;20.35;;;9.10;90.80;;;;;;5070032;28;20052;-58
2023/05/04 05:56:00;;;;;;;24.10;19.10;;;9.10;90.90;;;;;;5070022;28;20025;-58
2023/05/04 05:58:26;;;;;;;29.80;20.52;;;9.20;85.70;;;;;;5070442;28;20020;-58
2023/05/04 06:00:51;;;;;;;26.08;18.52;;;9.20;90.40;;;;;;5073055;28;20063;-58
2023/05/04 06:03:17;;;;;;;23.60;17.55;;;9.40;89.00;;;;;;5072916;28;20468;-58
2023/05/04 06:05:42;;;;;;;28.40;19.00;;;9.50;87.80;;;;;;5074194;28;20025;-58
2023/05/04 06:08:08;;;;;;;32.20;18.52;;;9.60;86.20;;;;;;5074451;28;20467;-58
2023/05/04 06:10:34;;;;;;;27.98;18.55;;;9.70;81.00;;;;;;5074208;28;20024;-58
2023/05/04 06:13:00;;;;;;;23.80;17.83;;;9.80;78.90;;;;;;5073462;28;20510;-57
2023/05/04 06:15:25;;;;;;;21.85;17.63;;;9.90;77.90;;;;;;5073882;28;20024;-55
2023/05/04 06:17:51;;;;;;;33.25;20.85;;;10.00;83.00;;;;;;5074255;28;20037;-55
2023/05/04 06:20:17;;;;;;;29.13;20.65;;;10.00;78.20;;;;;;5074316;28;20020;-58
2023/05/04 06:22:42;;;;;;;21.77;17.55;;;10.10;73.00;;;;;;5074351;28;20025;-58
2023/05/04 06:25:08;;;;;;;22.65;16.70;;;10.20;78.10;;;;;;5074364;28;20029;-58
2023/05/04 06:27:34;;;;;;;19.80;15.38;;;10.40;66.80;;;;;;5073778;28;20098;-58
2023/05/04 06:30:00;;;;;;;19.80;14.70;;;10.60;58.40;;;;;;5070966;28;20025;-58
2023/05/04 06:32:25;;;;;;;18.83;14.43;;;10.50;58.70;;;;;;5073148;28;20043;-58
2023/05/04 06:34:54;;;;;;;21.60;14.80;;;10.50;45.60;;;;;;5073789;28;20058;-58
2023/05/04 06:37:21;;;;;;;19.85;14.10;;;10.70;56.10;;;;;;5073301;28;20100;-61
2023/05/04 06:39:46;;;;;;;18.33;14.18;;;10.60;52.70;;;;;;5072755;28;20013;-58
2023/05/04 06:42:12;;;;;;;18.65;13.75;;;10.70;59.50;;;;;;5072391;28;20020;-58
2023/05/04 06:44:38;;;;;;;16.70;12.93;;;10.70;52.60;;;;;;5071758;28;20059;-58
2023/05/04 06:47:06;;;;;;;15.45;13.85;;;10.80;41.40;;;;;;5073552;28;20103;-58
2023/05/04 06:49:32;;;;;;;15.50;12.52;;;11.00;48.10;;;;;;5073206;28;20025;-57
2023/05/04 06:51:57;;;;;;;19.13;13.85;;;11.20;37.50;;;;;;5073339;28;20352;-57
2023/05/04 06:54:23;;;;;;;14.13;12.30;;;11.20;28.50;;;;;;5072209;28;20021;-57
2023/05/04 06:56:49;;;;;;;17.77;14.10;;;11.10;11.80;;;;;;5073476;28;20044;-57
2023/05/04 06:59:15;;;;;;;23.58;14.35;;;11.00;25.30;;;;;;5073595;28;20400;-57
2023/05/04 07:01:41;;;;;;;18.30;12.93;;;11.10;32.90;;;;;;5073165;28;20050;-56
2023/05/04 07:04:07;;;;;;;16.15;12.77;;;11.20;45.80;;;;;;5072634;28;20020;-57
2023/05/04 07:06:32;;;;;;;14.98;12.70;;;11.40;22.50;;;;;;5072506;28;20046;-58
2023/05/04 07:08:58;;;;;;;15.73;13.27;;;11.40;21.50;;;;;;5072874;28;20038;-57
2023/05/04 07:11:25;;;;;;;14.65;13.15;;;11.40;20.20;;;;;;5072115;28;20446;-57
2023/05/04 07:13:51;;;;;;;16.45;13.02;;;11.40;27.20;;;;;;5072706;28;20012;-55
2023/05/04 07:16:16;;;;;;;16.15;12.85;;;11.60;33.50;;;;;;5072606;28;20420;-57
2023/05/04 07:18:42;;;;;;;21.95;15.15;;;11.80;36.10;;;;;;5072170;28;20020;-57
2023/05/04 07:21:11;;;;;;;17.27;13.23;;;12.10;20.60;;;;;;5072342;28;20504;-57
2023/05/04 07:23:37;;;;;;;15.63;13.48;;;11.70;5.00;;;;;;5072313;28;20620;-55
2023/05/04 07:26:03;;;;;;;14.70;11.30;;;12.00;40.10;;;;;;5072140;28;20043;-58
2023/05/04 07:28:29;;;;;;;17.35;12.32;;;11.90;1.00;;;;;;5072032;28;20029;-57
2023/05/04 07:30:54;;;;;;;14.05;11.38;;;12.10;1.00;;;;;;5072200;28;20364;-57
2023/05/04 07:33:20;;;;;;;15.07;11.90;;;12.10;1.00;;;;;;5072457;28;20024;-58
2023/05/04 07:35:46;;;;;;;14.52;10.93;;;12.40;5.50;;;;;;5072550;28;20020;-58
2023/05/04 07:38:12;;;;;;;16.75;11.82;;;12.40;4.00;;;;;;5072528;28;20047;-57
2023/05/04 07:40:38;;;;;;;13.52;10.40;;;12.50;1.00;;;;;;5072272;28;20062;-57
2023/05/04 07:43:04;;;;;;;18.65;11.27;;;12.40;1.00;;;;;;5072160;28;20027;-58
2023/05/04 07:45:30;;;;;;;13.50;10.40;;;12.50;1.00;;;;;;5072255;28;20531;-57
2023/05/04 07:47:55;;;;;;;13.25;11.40;;;12.10;1.00;;;;;;5072355;28;20108;-57
2023/05/04 07:50:21;;;;;;;13.82;11.23;;;12.20;1.00;;;;;;5072276;28;20044;-57
2023/05/04 07:52:48;;;;;;;14.85;10.98;;;12.20;1.00;;;;;;5070984;28;20032;-58
2023/05/04 07:55:13;;;;;;;17.25;12.75;;;12.10;1.00;;;;;;5072192;28;20082;-57
2023/05/04 07:57:40;;;;;;;17.58;11.95;;;12.20;1.00;;;;;;5071896;28;20032;-57
2023/05/04 08:00:07;;;;;;;17.08;10.35;;;12.10;1.00;;;;;;5071741;28;20020;-58
2023/05/04 08:02:33;;;;;;;13.45;11.45;;;12.10;1.00;;;;;;5071551;28;20099;-58
2023/05/04 08:04:59;;;;;;;15.68;12.50;;;12.30;5.70;;;;;;5071933;28;20036;-57
2023/05/04 08:07:24;;;;;;;15.93;12.52;;;12.30;1.00;;;;;;5072252;28;20554;-57
2023/05/04 08:09:51;;;;;;;15.05;12.50;;;12.40;1.00;;;;;;5071512;28;20020;-58
2023/05/04 08:12:16;;;;;;;13.75;11.95;;;12.50;17.40;;;;;;5072458;28;20075;-58
2023/05/04 08:14:46;;;;;;;21.63;18.52;;;12.80;5.10;;;;;;5071809;28;20035;-58
2023/05/04 08:17:11;;;;;;;20.92;14.90;;;12.90;1.00;;;;;;5072240;28;20037;-58
2023/05/04 08:19:37;;;;;;;17.80;12.13;;;12.90;1.00;;;;;;5071078;28;20066;-56
2023/05/04 08:22:02;;;;;;;17.63;12.13;;;12.80;1.00;;;;;;5071286;28;20017;-58
2023/05/04 08:24:29;;;;;;;14.52;12.27;;;12.80;1.00;;;;;;5071578;28;20099;-58
2023/05/04 08:26:55;;;;;;;14.57;12.23;;;13.10;1.00;;;;;;5072165;28;20367;-58
2023/05/04 08:29:21;;;;;;;16.73;12.10;;;13.20;1.00;;;;;;5071976;28;20032;-58
2023/05/04 08:31:47;;;;;;;17.42;12.30;;;13.10;1.00;;;;;;5071545;28;20028;-58
2023/05/04 08:34:13;;;;;;;19.85;12.15;;;13.10;1.00;;;;;;5071713;28;20028;-58
2023/05/04 08:36:39;;;;;;;16.65;11.35;;;13.20;1.00;;;;;;5071527;28;20013;-58
2023/05/04 08:39:06;;;;;;;16.20;11.90;;;13.40;1.00;;;;;;5071132;28;20492;-58
2023/05/04 08:41:32;;;;;;;15.65;12.38;;;13.60;1.00;;;;;;5071465;28;20021;-58
2023/05/04 08:43:58;;;;;;;15.75;12.52;;;13.80;1.00;;;;;;5070765;28;20038;-58
2023/05/04 08:46:24;;;;;;;17.92;11.93;;;13.90;1.00;;;;;;5069936;28;20035;-58
2023/05/04 08:48:51;;;;;;;16.70;12.18;;;13.80;1.00;;;;;;5071685;28;20055;-58
2023/05/04 08:51:17;;;;;;;15.35;12.38;;;13.90;1.00;;;;;;5071372;28;20095;-57
2023/05/04 08:53:44;;;;;;;14.07;11.50;;;14.10;1.00;;;;;;5070583;28;20612;-58
2023/05/04 08:56:12;;;;;;;16.50;11.98;;;14.30;99.90;;;;;;5070895;28;20106;-58
2023/05/04 08:58:49;;;;;;;15.35;11.43;;;14.50;1.00;;;;;;5070970;28;20095;-58
2023/05/04 09:01:17;;;;;;;13.70;11.40;;;14.70;1.00;;;;;;5071119;28;20372;-58
2023/05/04 09:03:44;;;;;;;16.75;11.77;;;15.00;99.90;;;;;;5070925;28;20129;-58
2023/05/04 09:06:12;;;;;;;15.57;13.45;;;15.00;99.90;;;;;;5071090;28;20025;-57
2023/05/04 09:08:37;;;;;;;14.98;11.20;;;15.10;99.90;;;;;;5071097;28;20124;-58
2023/05/04 09:11:03;;;;;;;14.25;11.88;;;15.20;99.90;;;;;;5070928;28;20096;-58
2023/05/04 09:13:30;;;;;;;13.95;10.55;;;15.40;99.90;;;;;;5070244;28;20078;-58
2023/05/04 09:15:57;;;;;;;16.85;11.77;;;15.40;99.90;;;;;;5070662;28;20411;-58
2023/05/04 09:18:23;;;;;;;13.30;10.10;;;15.50;1.00;;;;;;5071352;28;20460;-57
2023/05/04 09:20:49;;;;;;;15.55;11.45;;;15.50;99.90;;;;;;5071294;28;20029;-58
2023/05/04 09:23:16;;;;;;;18.88;10.95;;;15.60;99.90;;;;;;5071155;28;20391;-57
2023/05/04 09:25:47;;;;;;;24.73;14.35;;;15.70;1.00;;;;;;5071073;28;20021;-58
2023/05/04 09:28:13;;;;;;;12.48;10.25;;;16.00;23.20;;;;;;5069841;28;20521;-58
2023/05/04 09:30:38;;;;;;;15.48;10.77;;;16.00;1.00;;;;;;5070706;28;20040;-58
2023/05/04 09:33:05;;;;;;;20.40;10.05;;;16.00;99.90;;;;;;5071237;28;20021;-58
2023/05/04 09:35:30;;;;;;;13.45;9.63;;;16.30;99.90;;;;;;5072951;28;20456;-58
2023/05/04 09:37:57;;;;;;;12.25;8.55;;;16.40;99.90;;;;;;5075238;28;20037;-58
2023/05/04 09:40:48;;;;;;;11.48;10.18;;;16.50;1.00;;;;;;5074720;28;20524;-58
2023/05/04 09:43:14;;;;;;;13.63;10.10;;;16.70;99.90;;;;;;5072218;28;20021;-56
2023/05/04 09:45:41;;;;;;;14.15;9.15;;;16.80;99.90;;;;;;5073253;28;20598;-59
2023/05/04 09:48:20;;;;;;;16.05;10.10;;;17.10;1.00;;;;;;5074230;28;20034;-57
2023/05/04 09:50:52;;;;;;;13.60;9.40;;;17.00;99.90;;;;;;5074362;28;20044;-58
2023/05/04 09:53:40;;;;;;;11.27;9.27;;;17.40;1.00;;;;;;5074067;28;20684;-58
2023/05/04 09:56:16;;;;;;;18.65;10.82;;;17.50;1.00;;;;;;5074097;28;20103;-58
2023/05/04 09:58:44;;;;;;;14.82;8.98;;;17.60;99.90;;;;;;5073699;28;20035;-58
2023/05/04 10:01:10;;;;;;;15.15;10.38;;;17.90;1.00;;;;;;5074055;28;20107;-58
2023/05/04 10:03:36;;;;;;;21.77;12.45;;;18.30;1.00;;;;;;5072669;28;20128;-58
2023/05/04 10:06:04;;;;;;;19.23;10.75;;;18.50;99.90;;;;;;5073817;28;20021;-58
2023/05/04 10:08:31;;;;;;;18.02;9.65;;;18.40;99.90;;;;;;5074348;28;20513;-58
2023/05/04 10:10:57;;;;;;;11.95;9.23;;;18.30;1.00;;;;;;5074194;28;20123;-58
2023/05/04 10:13:24;;;;;;;12.45;8.98;;;18.10;99.90;;;;;;5074071;28;20020;-59
2023/05/04 10:16:23;;;;;;;18.52;9.45;;;18.10;1.00;;;;;;5073834;28;20028;-58
2023/05/04 10:19:28;;;;;;;19.25;10.95;;;18.40;99.90;;;;;;5073571;28;20021;-58
2023/05/04 10:22:14;;;;;;;16.48;9.27;;;18.60;99.90;;;;;;5072518;28;20056;-58
2023/05/04 10:25:06;;;;;;;18.40;10.40;;;18.70;99.90;;;;;;5073896;28;20162;-58
2023/05/04 10:27:53;;;;;;;12.32;9.80;;;18.90;3.70;;;;;;5073937;28;20036;-58
2023/05/04 10:30:19;;;;;;;11.32;8.85;;;19.00;1.00;;;;;;5073792;28;20020;-58
2023/05/04 10:32:45;;;;;;;14.35;9.07;;;19.00;51.90;;;;;;5073658;28;20025;-58
2023/05/04 10:35:11;;;;;;;16.80;9.57;;;18.90;1.00;;;;;;5073745;28;20024;-58
2023/05/04 10:37:37;;;;;;;12.25;8.90;;;19.10;1.00;;;;;;5072804;28;20024;-58
2023/05/04 10:40:07;;;;;;;18.85;8.90;;;19.30;1.00;;;;;;5072558;28;20032;-58
2023/05/04 10:42:42;;;;;;;11.80;8.02;;;19.10;99.90;;;;;;5072777;28;20399;-58
2023/05/04 10:45:09;;;;;;;16.38;8.77;;;19.30;99.90;;;;;;5072641;28;20035;-59
2023/05/04 10:47:36;;;;;;;12.20;8.52;;;19.50;1.00;;;;;;5072829;28;20029;-58
2023/05/04 10:50:14;;;;;;;12.45;7.90;;;19.40;99.90;;;;;;5073790;28;20089;-58
2023/05/04 10:52:48;;;;;;;12.82;8.25;;;19.60;99.90;;;;;;5073003;28;20032;-58
2023/05/04 10:55:14;;;;;;;11.93;8.75;;;19.80;99.90;;;;;;5073589;28;20099;-58
2023/05/04 10:57:49;;;;;;;14.73;6.70;;;20.00;99.90;;;;;;5073493;28;20055;-58
2023/05/04 11:00:16;;;;;;;9.77;6.47;;;20.20;99.90;;;;;;5072903;28;20047;-58
2023/05/04 11:02:43;;;;;;;11.65;9.20;;;20.30;6.00;;;;;;5071604;28;20047;-59
2023/05/04 11:05:14;;;;;;;10.27;7.90;;;20.20;1.00;;;;;;5073379;28;20116;-58
2023/05/04 11:07:40;;;;;;;9.10;7.05;;;20.10;1.00;;;;;;5073278;28;20036;-58
2023/05/04 11:10:18;;;;;;;11.43;7.00;;;20.20;1.00;;;;;;5073062;28;20686;-58
2023/05/04 11:12:44;;;;;;;11.13;8.57;;;20.20;1.00;;;;;;5073026;28;20669;-58
2023/05/04 11:15:10;;;;;;;13.45;7.22;;;20.10;1.00;;;;;;5073176;28;20028;-59
2023/05/04 11:17:49;;;;;;;10.98;7.65;;;20.20;1.00;;;;;;5072820;28;20020;-58
2023/05/04 11:20:25;;;;;;;14.25;7.20;;;20.50;1.00;;;;;;5073012;28;20116;-58
2023/05/04 11:22:52;;;;;;;11.90;7.68;;;20.60;12.90;;;;;;5072917;28;20082;-59
2023/05/04 11:25:29;;;;;;;11.60;7.25;;;20.30;1.00;;;;;;5071695;28;20077;-59
2023/05/04 11:27:55;;;;;;;13.73;7.28;;;20.00;1.00;;;;;;5072591;28;20017;-59
2023/05/04 11:30:30;;;;;;;10.75;6.88;;;20.20;1.00;;;;;;5072583;28;20095;-58
2023/05/04 11:32:58;;;;;;;14.35;7.15;;;20.40;1.00;;;;;;5072644;28;20066;-59
2023/05/04 11:35:26;;;;;;;10.82;7.22;;;21.00;1.00;;;;;;5072839;28;20032;-59
2023/05/04 11:37:52;;;;;;;10.27;6.82;;;21.20;1.00;;;;;;5072252;28;20040;-59
2023/05/04 11:40:25;;;;;;;12.90;7.20;;;21.30;1.00;;;;;;5072633;28;20017;-59
2023/05/04 11:42:52;;;;;;;13.15;7.00;;;21.70;99.90;;;;;;5072595;28;20028;-59
2023/05/04 11:45:28;;;;;;;14.20;7.63;;;22.40;1.00;;;;;;5072714;28;20048;-59
2023/05/04 11:47:57;;;;;;;9.65;6.47;;;23.20;99.90;;;;;;5072393;28;20020;-59
2023/05/04 11:50:25;;;;;;;12.15;6.03;;;23.80;99.90;;;;;;5072243;28;20032;-59
2023/05/04 11:53:02;;;;;;;12.35;5.45;;;24.80;99.90;;;;;;5072372;28;20028;-59
2023/05/04 11:55:29;;;;;;;7.28;5.90;;;25.10;99.90;;;;;;5072267;28;20028;-58
2023/05/04 11:58:03;;;;;;;8.07;6.00;;;25.40;99.90;;;;;;5071465;28;20451;-59
2023/05/04 12:00:42;;;;;;;7.78;5.25;;;25.50;99.90;;;;;;5071011;28;20078;-59
2023/05/04 12:03:15;;;;;;;8.73;5.25;;;26.20;99.90;;;;;;5072113;28;20473;-60
2023/05/04 12:05:49;;;;;;;8.00;4.95;;;26.10;99.90;;;;;;5070854;28;20605;-60
2023/05/04 12:08:41;;;;;;;7.22;4.40;;;26.50;99.90;;;;;;5072307;28;20036;-59
2023/05/04 12:11:24;;;;;;;8.55;5.43;;;26.70;99.90;;;;;;5058295;28;20048;-59
2023/05/04 12:14:02;;;;;;;10.15;5.75;;;25.90;99.90;;;;;;5072131;28;20083;-59
2023/05/04 12:16:27;;;;;;;14.50;4.82;;;26.40;99.90;;;;;;5072031;28;20029;-60
2023/05/04 12:19:03;;;;;;;8.30;4.35;;;27.10;99.90;;;;;;5072036;28;20356;-59
2023/05/04 12:21:29;;;;;;;15.23;4.68;;;28.00;99.90;;;;;;5070308;28;20028;-60
2023/05/04 12:23:58;;;;;;;14.35;5.10;;;27.60;99.90;;;;;;5072027;28;20027;-60
2023/05/04 12:26:23;;;;;;;7.28;4.25;;;27.40;99.90;;;;;;5071805;28;20021;-59
2023/05/04 12:28:50;;;;;;;7.00;4.40;;;27.40;99.90;;;;;;5071963;28;20078;-59
2023/05/04 12:31:15;;;;;;;8.65;3.45;;;27.00;99.90;;;;;;5071934;28;20027;-59
2023/05/04 12:33:41;;;;;;;7.55;3.63;;;27.30;99.90;;;;;;5071687;28;20024;-59
2023/05/04 12:36:07;;;;;;;7.70;3.55;;;27.70;99.90;;;;;;5071821;28;20560;-59
2023/05/04 12:38:33;;;;;;;7.28;4.35;;;27.80;99.90;;;;;;5073590;28;20055;-59